sensor_id;sensor_type;location;lat;lon;timestamp;pressure;altitude;pressure_sealevel;temperature;humidity
76195;BME280;64964;48.694;21.206;2023-02-13T00:00:30;99949.78;;;-1.65;67.59
76195;BME280;64964;48.694;21.206;2023-02-13T00:02:56;99953.22;;;-1.65;67.94
76195;BME280;64964;48.694;21.206;2023-02-13T00:05:21;99951.47;;;-1.64;67.99
76195;BME280;64964;48.694;21.206;2023-02-13T00:07:47;99946.28;;;-1.64;68.32
76195;BME280;64964;48.694;21.206;2023-02-13T00:10:12;99955.72;;;-1.62;67.62
76195;BME280;64964;48.694;21.206;2023-02-13T00:12:38;99951.44;;;-1.63;67.61
76195;BME280;64964;48.694;21.206;2023-02-13T00:15:04;99949.69;;;-1.62;67.74
76195;BME280;64964;48.694;21.206;2023-02-13T00:17:29;99948.06;;;-1.66;68.11
76195;BME280;64964;48.694;21.206;2023-02-13T00:19:55;99948.94;;;-1.67;67.76
76195;BME280;64964;48.694;21.206;2023-02-13T00:22:20;99949.00;;;-1.69;68.87
76195;BME280;64964;48.694;21.206;2023-02-13T00:24:46;99948.94;;;-1.67;69.45
76195;BME280;64964;48.694;21.206;2023-02-13T00:27:11;99948.88;;;-1.64;68.79
76195;BME280;64964;48.694;21.206;2023-02-13T00:29:36;99950.53;;;-1.62;68.18
76195;BME280;64964;48.694;21.206;2023-02-13T00:32:02;99949.69;;;-1.62;67.56
76195;BME280;64964;48.694;21.206;2023-02-13T00:34:27;99950.66;;;-1.66;67.82
76195;BME280;64964;48.694;21.206;2023-02-13T00:36:52;99958.44;;;-1.66;68.52
76195;BME280;64964;48.694;21.206;2023-02-13T00:39:18;99951.53;;;-1.67;68.32
76195;BME280;64964;48.694;21.206;2023-02-13T00:41:43;99960.19;;;-1.67;68.66
76195;BME280;64964;48.694;21.206;2023-02-13T00:44:09;99955.81;;;-1.65;68.68
76195;BME280;64964;48.694;21.206;2023-02-13T00:46:35;99954.06;;;-1.64;68.14
76195;BME280;64964;48.694;21.206;2023-02-13T00:49:01;99955.84;;;-1.66;67.54
76195;BME280;64964;48.694;21.206;2023-02-13T00:51:26;99954.25;;;-1.70;67.73
76195;BME280;64964;48.694;21.206;2023-02-13T00:53:52;99958.66;;;-1.74;67.65
76195;BME280;64964;48.694;21.206;2023-02-13T00:56:17;99959.66;;;-1.78;67.95
76195;BME280;64964;48.694;21.206;2023-02-13T00:58:43;99956.22;;;-1.79;69.30
76195;BME280;64964;48.694;21.206;2023-02-13T01:01:09;99955.31;;;-1.78;69.09
76195;BME280;64964;48.694;21.206;2023-02-13T01:03:34;99961.31;;;-1.76;68.37
76195;BME280;64964;48.694;21.206;2023-02-13T01:05:59;99953.56;;;-1.77;68.48
76195;BME280;64964;48.694;21.206;2023-02-13T01:08:25;99956.13;;;-1.76;68.73
76195;BME280;64964;48.694;21.206;2023-02-13T01:10:53;99950.06;;;-1.76;68.42
76195;BME280;64964;48.694;21.206;2023-02-13T01:13:19;99957.81;;;-1.74;67.71
76195;BME280;64964;48.694;21.206;2023-02-13T01:15:45;99949.19;;;-1.75;68.12
76195;BME280;64964;48.694;21.206;2023-02-13T01:18:15;99953.56;;;-1.77;67.43
76195;BME280;64964;48.694;21.206;2023-02-13T01:20:42;99954.59;;;-1.83;68.12
76195;BME280;64964;48.694;21.206;2023-02-13T01:23:11;99946.06;;;-1.86;67.57
76195;BME280;64964;48.694;21.206;2023-02-13T01:25:41;99952.28;;;-1.93;67.98
76195;BME280;64964;48.694;21.206;2023-02-13T01:28:06;99944.66;;;-1.98;67.80
76195;BME280;64964;48.694;21.206;2023-02-13T01:30:32;99950.78;;;-2.01;67.54
76195;BME280;64964;48.694;21.206;2023-02-13T01:32:58;99943.16;;;-2.07;67.56
76195;BME280;64964;48.694;21.206;2023-02-13T01:35:23;99941.59;;;-2.12;68.62
76195;BME280;64964;48.694;21.206;2023-02-13T01:37:48;99936.44;;;-2.14;68.25
76195;BME280;64964;48.694;21.206;2023-02-13T01:40:14;99939.94;;;-2.15;68.08
76195;BME280;64964;48.694;21.206;2023-02-13T01:42:40;99935.66;;;-2.17;69.25
76195;BME280;64964;48.694;21.206;2023-02-13T01:45:18;99921.00;;;-2.17;69.62
76195;BME280;64964;48.694;21.206;2023-02-13T01:47:48;99929.63;;;-2.16;69.53
76195;BME280;64964;48.694;21.206;2023-02-13T01:50:23;99926.13;;;-2.15;69.00
76195;BME280;64964;48.694;21.206;2023-02-13T01:53:01;99932.22;;;-2.16;69.76
76195;BME280;64964;48.694;21.206;2023-02-13T01:55:29;99927.88;;;-2.16;68.98
76195;BME280;64964;48.694;21.206;2023-02-13T01:58:01;99940.00;;;-2.18;69.57
76195;BME280;64964;48.694;21.206;2023-02-13T02:00:28;99938.25;;;-2.17;70.19
76195;BME280;64964;48.694;21.206;2023-02-13T02:03:00;99931.31;;;-2.15;68.92
76195;BME280;64964;48.694;21.206;2023-02-13T02:05:30;99935.59;;;-2.14;69.20
76195;BME280;64964;48.694;21.206;2023-02-13T02:07:59;99941.72;;;-2.17;69.57
76195;BME280;64964;48.694;21.206;2023-02-13T02:10:28;99930.63;;;-2.22;69.55
76195;BME280;64964;48.694;21.206;2023-02-13T02:13:14;99934.94;;;-2.21;69.53
76195;BME280;64964;48.694;21.206;2023-02-13T02:15:42;99935.78;;;-2.20;69.15
76195;BME280;64964;48.694;21.206;2023-02-13T02:18:16;99923.66;;;-2.20;69.82
76195;BME280;64964;48.694;21.206;2023-02-13T02:44:14;99921.53;;;-2.37;70.29
76195;BME280;64964;48.694;21.206;2023-02-13T02:46:56;99916.31;;;-2.35;71.33
76195;BME280;64964;48.694;21.206;2023-02-13T02:49:43;99918.81;;;-2.32;69.94
76195;BME280;64964;48.694;21.206;2023-02-13T02:52:34;99914.56;;;-2.35;69.19
76195;BME280;64964;48.694;21.206;2023-02-13T02:57:45;99916.50;;;-2.43;69.37
76195;BME280;64964;48.694;21.206;2023-02-13T03:00:33;99918.31;;;-2.45;69.33
76195;BME280;64964;48.694;21.206;2023-02-13T03:03:22;99921.00;;;-2.49;69.65
76195;BME280;64964;48.694;21.206;2023-02-13T03:06:17;99927.97;;;-2.52;70.85
76195;BME280;64964;48.694;21.206;2023-02-13T03:08:50;99913.25;;;-2.49;70.38
76195;BME280;64964;48.694;21.206;2023-02-13T03:11:36;99919.28;;;-2.49;70.28
76195;BME280;64964;48.694;21.206;2023-02-13T03:14:21;99914.09;;;-2.49;70.30
76195;BME280;64964;48.694;21.206;2023-02-13T03:16:49;99920.06;;;-2.47;69.36
76195;BME280;64964;48.694;21.206;2023-02-13T03:19:45;99915.84;;;-2.49;70.29
76195;BME280;64964;48.694;21.206;2023-02-13T03:22:42;99916.75;;;-2.52;69.86
76195;BME280;64964;48.694;21.206;2023-02-13T03:28:08;99911.56;;;-2.51;70.43
76195;BME280;64964;48.694;21.206;2023-02-13T03:30:59;99915.78;;;-2.48;69.18
76195;BME280;64964;48.694;21.206;2023-02-13T03:33:47;99915.06;;;-2.53;69.16
76195;BME280;64964;48.694;21.206;2023-02-13T03:42:34;99908.50;;;-2.66;69.77
76195;BME280;64964;48.694;21.206;2023-02-13T03:45:09;99906.00;;;-2.69;69.93
76195;BME280;64964;48.694;21.206;2023-02-13T03:47:57;99912.88;;;-2.68;70.68
76195;BME280;64964;48.694;21.206;2023-02-13T03:50:24;99908.53;;;-2.68;69.74
76195;BME280;64964;48.694;21.206;2023-02-13T03:53:02;99907.69;;;-2.68;70.38
76195;BME280;64964;48.694;21.206;2023-02-13T03:55:33;99910.25;;;-2.67;69.77
76195;BME280;64964;48.694;21.206;2023-02-13T03:58:30;99906.84;;;-2.69;70.76
76195;BME280;64964;48.694;21.206;2023-02-13T04:01:18;99902.50;;;-2.67;69.64
76195;BME280;64964;48.694;21.206;2023-02-13T04:06:33;99895.59;;;-2.68;70.49
76195;BME280;64964;48.694;21.206;2023-02-13T04:08:59;99893.00;;;-2.68;70.35
76195;BME280;64964;48.694;21.206;2023-02-13T04:11:40;99892.19;;;-2.70;71.49
76195;BME280;64964;48.694;21.206;2023-02-13T04:14:32;99891.38;;;-2.72;70.98
76195;BME280;64964;48.694;21.206;2023-02-13T04:17:10;99899.13;;;-2.70;71.48
76195;BME280;64964;48.694;21.206;2023-02-13T04:19:38;99893.91;;;-2.69;70.91
76195;BME280;64964;48.694;21.206;2023-02-13T04:22:03;99905.91;;;-2.66;71.11
76195;BME280;64964;48.694;21.206;2023-02-13T04:24:29;99910.25;;;-2.67;71.44
76195;BME280;64964;48.694;21.206;2023-02-13T04:26:55;99922.25;;;-2.64;71.68
76195;BME280;64964;48.694;21.206;2023-02-13T04:29:24;99913.63;;;-2.65;71.76
76195;BME280;64964;48.694;21.206;2023-02-13T04:31:50;99920.44;;;-2.61;71.23
76195;BME280;64964;48.694;21.206;2023-02-13T04:34:16;99919.53;;;-2.60;71.08
76195;BME280;64964;48.694;21.206;2023-02-13T04:36:42;99922.97;;;-2.59;71.21
76195;BME280;64964;48.694;21.206;2023-02-13T04:39:07;99927.31;;;-2.60;71.19
76195;BME280;64964;48.694;21.206;2023-02-13T04:41:33;99925.56;;;-2.59;71.10
76195;BME280;64964;48.694;21.206;2023-02-13T04:43:58;99922.97;;;-2.59;70.97
76195;BME280;64964;48.694;21.206;2023-02-13T04:46:23;99917.00;;;-2.61;71.11
76195;BME280;64964;48.694;21.206;2023-02-13T04:48:49;99926.50;;;-2.62;70.95
76195;BME280;64964;48.694;21.206;2023-02-13T04:51:14;99930.84;;;-2.62;70.96
76195;BME280;64964;48.694;21.206;2023-02-13T04:53:39;99931.75;;;-2.63;71.33
76195;BME280;64964;48.694;21.206;2023-02-13T04:56:05;99935.19;;;-2.63;70.76
76195;BME280;64964;48.694;21.206;2023-02-13T04:58:30;99940.44;;;-2.66;70.69
76195;BME280;64964;48.694;21.206;2023-02-13T05:00:56;99934.41;;;-2.66;71.04
76195;BME280;64964;48.694;21.206;2023-02-13T05:03:21;99931.09;;;-2.73;71.32
76195;BME280;64964;48.694;21.206;2023-02-13T05:05:47;99929.34;;;-2.71;71.03
76195;BME280;64964;48.694;21.206;2023-02-13T05:08:13;99937.09;;;-2.71;71.45
76195;BME280;64964;48.694;21.206;2023-02-13T05:10:38;99936.22;;;-2.70;71.17
76195;BME280;64964;48.694;21.206;2023-02-13T05:13:03;99935.44;;;-2.73;71.51
76195;BME280;64964;48.694;21.206;2023-02-13T05:15:29;99934.63;;;-2.76;71.54
76195;BME280;64964;48.694;21.206;2023-02-13T05:17:54;99937.19;;;-2.74;71.78
76195;BME280;64964;48.694;21.206;2023-02-13T05:20:19;99930.25;;;-2.73;71.59
76195;BME280;64964;48.694;21.206;2023-02-13T05:22:46;99932.91;;;-2.75;72.31
76195;BME280;64964;48.694;21.206;2023-02-13T05:25:31;99935.50;;;-2.77;72.33
76195;BME280;64964;48.694;21.206;2023-02-13T05:27:57;99938.91;;;-2.74;72.19
76195;BME280;64964;48.694;21.206;2023-02-13T05:30:22;99941.47;;;-2.73;72.05
76195;BME280;64964;48.694;21.206;2023-02-13T05:32:48;99933.69;;;-2.73;72.18
76195;BME280;64964;48.694;21.206;2023-02-13T05:35:18;99931.16;;;-2.74;72.16
76195;BME280;64964;48.694;21.206;2023-02-13T05:37:44;99945.84;;;-2.75;72.53
76195;BME280;64964;48.694;21.206;2023-02-13T05:40:10;99938.03;;;-2.73;72.33
76195;BME280;64964;48.694;21.206;2023-02-13T05:42:37;99938.88;;;-2.73;72.31
76195;BME280;64964;48.694;21.206;2023-02-13T05:45:03;99942.28;;;-2.71;71.90
76195;BME280;64964;48.694;21.206;2023-02-13T05:47:28;99943.00;;;-2.66;71.80
76195;BME280;64964;48.694;21.206;2023-02-13T05:49:54;99936.94;;;-2.65;71.64
76195;BME280;64964;48.694;21.206;2023-02-13T05:52:20;99936.03;;;-2.62;71.52
76195;BME280;64964;48.694;21.206;2023-02-13T05:54:47;99944.63;;;-2.62;71.61
76195;BME280;64964;48.694;21.206;2023-02-13T05:57:13;99942.88;;;-2.61;71.59
76195;BME280;64964;48.694;21.206;2023-02-13T05:59:40;99946.28;;;-2.59;71.58
76195;BME280;64964;48.694;21.206;2023-02-13T06:02:06;99940.22;;;-2.58;71.68
76195;BME280;64964;48.694;21.206;2023-02-13T06:04:34;99941.00;;;-2.55;71.30
76195;BME280;64964;48.694;21.206;2023-02-13T06:07:01;99940.06;;;-2.52;71.22
76195;BME280;64964;48.694;21.206;2023-02-13T06:09:26;99945.16;;;-2.49;70.77
76195;BME280;64964;48.694;21.206;2023-02-13T06:11:52;99944.28;;;-2.48;71.63
76195;BME280;64964;48.694;21.206;2023-02-13T06:14:17;99950.22;;;-2.44;71.73
76195;BME280;64964;48.694;21.206;2023-02-13T06:16:43;99955.22;;;-2.38;71.78
76195;BME280;64964;48.694;21.206;2023-02-13T06:19:09;99949.91;;;-2.32;71.14
76195;BME280;64964;48.694;21.206;2023-02-13T06:21:34;99954.13;;;-2.28;70.83
76195;BME280;64964;48.694;21.206;2023-02-13T06:24:08;99958.19;;;-2.19;71.61
76195;BME280;64964;48.694;21.206;2023-02-13T06:26:34;99965.78;;;-2.12;71.59
76195;BME280;64964;48.694;21.206;2023-02-13T06:29:02;99962.97;;;-2.04;71.02
76195;BME280;64964;48.694;21.206;2023-02-13T06:31:28;99968.81;;;-1.97;70.84
76195;BME280;64964;48.694;21.206;2023-02-13T06:33:55;99975.53;;;-1.90;70.96
76195;BME280;64964;48.694;21.206;2023-02-13T06:36:25;99964.19;;;-1.86;71.16
76195;BME280;64964;48.694;21.206;2023-02-13T06:38:50;99966.50;;;-1.76;71.41
76195;BME280;64964;48.694;21.206;2023-02-13T06:41:16;99961.88;;;-1.66;71.25
76195;BME280;64964;48.694;21.206;2023-02-13T06:43:41;99967.66;;;-1.56;71.25
76195;BME280;64964;48.694;21.206;2023-02-13T06:46:08;99965.59;;;-1.45;71.50
76195;BME280;64964;48.694;21.206;2023-02-13T06:48:34;99964.41;;;-1.35;71.55
76195;BME280;64964;48.694;21.206;2023-02-13T06:50:59;99968.44;;;-1.24;71.34
76195;BME280;64964;48.694;21.206;2023-02-13T06:53:28;99960.31;;;-1.14;71.29
76195;BME280;64964;48.694;21.206;2023-02-13T06:55:55;99967.78;;;-1.03;71.06
76195;BME280;64964;48.694;21.206;2023-02-13T06:58:24;99966.69;;;-0.96;70.95
76195;BME280;64964;48.694;21.206;2023-02-13T07:00:53;99968.16;;;-0.89;70.88
76195;BME280;64964;48.694;21.206;2023-02-13T07:03:18;99968.84;;;-0.82;70.62
76195;BME280;64964;48.694;21.206;2023-02-13T07:05:44;99966.94;;;-0.77;70.07
76195;BME280;64964;48.694;21.206;2023-02-13T07:08:10;99972.81;;;-0.72;69.86
76195;BME280;64964;48.694;21.206;2023-02-13T07:10:39;99974.38;;;-0.66;69.54
76195;BME280;64964;48.694;21.206;2023-02-13T07:13:09;99972.47;;;-0.61;69.52
76195;BME280;64964;48.694;21.206;2023-02-13T07:15:38;99963.69;;;-0.57;69.28
76195;BME280;64964;48.694;21.206;2023-02-13T07:18:04;99969.47;;;-0.49;68.95
76195;BME280;64964;48.694;21.206;2023-02-13T07:20:32;99976.22;;;-0.43;68.80
76195;BME280;64964;48.694;21.206;2023-02-13T07:22:59;99985.53;;;-0.38;68.38
76195;BME280;64964;48.694;21.206;2023-02-13T07:25:27;99971.44;;;-0.31;68.46
76195;BME280;64964;48.694;21.206;2023-02-13T07:27:52;99976.38;;;-0.23;68.36
76195;BME280;64964;48.694;21.206;2023-02-13T07:30:18;99979.63;;;-0.16;68.29
76195;BME280;64964;48.694;21.206;2023-02-13T07:32:43;99981.06;;;-0.08;68.23
76195;BME280;64964;48.694;21.206;2023-02-13T07:35:09;99978.91;;;0.04;68.09
76195;BME280;64964;48.694;21.206;2023-02-13T07:37:34;99971.59;;;0.15;67.71
76195;BME280;64964;48.694;21.206;2023-02-13T07:40:00;99973.63;;;0.30;67.40
76195;BME280;64964;48.694;21.206;2023-02-13T07:42:26;99976.56;;;0.44;67.27
76195;BME280;64964;48.694;21.206;2023-02-13T07:44:52;99971.53;;;0.63;67.21
76195;BME280;64964;48.694;21.206;2023-02-13T07:47:17;99976.75;;;0.85;67.17
76195;BME280;64964;48.694;21.206;2023-02-13T07:49:43;99976.53;;;1.13;66.99
76195;BME280;64964;48.694;21.206;2023-02-13T07:52:08;99968.09;;;1.49;66.38
76195;BME280;64964;48.694;21.206;2023-02-13T07:54:35;99969.03;;;1.89;65.34
76195;BME280;64964;48.694;21.206;2023-02-13T07:57:01;99972.13;;;2.36;65.09
76195;BME280;64964;48.694;21.206;2023-02-13T07:59:28;99972.34;;;2.88;63.91
76195;BME280;64964;48.694;21.206;2023-02-13T08:01:53;99963.63;;;3.43;63.08
76195;BME280;64964;48.694;21.206;2023-02-13T08:04:19;99961.91;;;3.94;62.04
76195;BME280;64964;48.694;21.206;2023-02-13T08:06:45;99958.22;;;4.31;61.33
76195;BME280;64964;48.694;21.206;2023-02-13T08:09:17;99959.88;;;4.81;59.47
76195;BME280;64964;48.694;21.206;2023-02-13T08:12:15;99942.69;;;6.12;59.29
76195;BME280;64964;48.694;21.206;2023-02-13T08:14:41;99938.66;;;7.57;56.95
76195;BME280;64964;48.694;21.206;2023-02-13T08:17:08;99933.75;;;9.03;53.31
76195;BME280;64964;48.694;21.206;2023-02-13T08:19:35;99938.09;;;10.54;51.52
76195;BME280;64964;48.694;21.206;2023-02-13T08:22:04;99928.47;;;11.72;48.15
76195;BME280;64964;48.694;21.206;2023-02-13T08:24:31;99927.84;;;12.71;45.70
76195;BME280;64964;48.694;21.206;2023-02-13T08:26:56;99937.84;;;13.66;41.49
76195;BME280;64964;48.694;21.206;2023-02-13T08:29:23;99939.31;;;14.08;40.45
76195;BME280;64964;48.694;21.206;2023-02-13T08:31:48;99941.56;;;14.59;40.73
76195;BME280;64964;48.694;21.206;2023-02-13T08:34:14;99936.50;;;15.29;39.74
76195;BME280;64964;48.694;21.206;2023-02-13T08:36:40;99927.69;;;16.16;38.17
76195;BME280;64964;48.694;21.206;2023-02-13T08:39:05;99933.94;;;16.67;37.48
76195;BME280;64964;48.694;21.206;2023-02-13T08:41:31;99931.28;;;17.26;36.04
76195;BME280;64964;48.694;21.206;2023-02-13T08:43:56;99943.81;;;17.17;34.35
76195;BME280;64964;48.694;21.206;2023-02-13T08:46:22;99939.00;;;17.29;32.59
76195;BME280;64964;48.694;21.206;2023-02-13T08:48:47;99940.81;;;17.21;33.05
76195;BME280;64964;48.694;21.206;2023-02-13T08:51:13;99940.53;;;17.64;33.08
76195;BME280;64964;48.694;21.206;2023-02-13T08:53:39;99940.38;;;17.82;32.49
76195;BME280;64964;48.694;21.206;2023-02-13T08:56:06;99938.97;;;18.27;31.97
76195;BME280;64964;48.694;21.206;2023-02-13T08:58:32;99934.28;;;18.29;29.38
76195;BME280;64964;48.694;21.206;2023-02-13T09:00:57;99934.00;;;18.72;30.21
76195;BME280;64964;48.694;21.206;2023-02-13T09:03:23;99935.84;;;18.63;28.16
76195;BME280;64964;48.694;21.206;2023-02-13T09:05:48;99926.50;;;18.51;27.98
76195;BME280;64964;48.694;21.206;2023-02-13T09:08:16;99928.28;;;18.19;27.64
76195;BME280;64964;48.694;21.206;2023-02-13T09:10:41;99922.00;;;18.43;27.65
76195;BME280;64964;48.694;21.206;2023-02-13T09:13:10;99922.16;;;18.50;29.44
76195;BME280;64964;48.694;21.206;2023-02-13T09:15:40;99914.28;;;17.92;29.20
76195;BME280;64964;48.694;21.206;2023-02-13T09:18:08;99912.88;;;16.99;29.12
76195;BME280;64964;48.694;21.206;2023-02-13T09:20:37;99910.00;;;16.84;29.97
76195;BME280;64964;48.694;21.206;2023-02-13T09:23:03;99915.31;;;16.76;31.62
76195;BME280;64964;48.694;21.206;2023-02-13T09:25:33;99908.50;;;16.13;30.63
76195;BME280;64964;48.694;21.206;2023-02-13T09:28:00;99916.72;;;15.14;32.05
76195;BME280;64964;48.694;21.206;2023-02-13T09:30:26;99915.81;;;14.78;33.71
76195;BME280;64964;48.694;21.206;2023-02-13T09:32:57;99913.09;;;14.87;33.10
76195;BME280;64964;48.694;21.206;2023-02-13T09:35:23;99919.28;;;15.24;33.95
76195;BME280;64964;48.694;21.206;2023-02-13T09:37:49;99911.59;;;15.56;32.86
76195;BME280;64964;48.694;21.206;2023-02-13T09:40:24;99911.28;;;16.03;32.95
76195;BME280;64964;48.694;21.206;2023-02-13T09:43:28;99905.31;;;15.83;31.94
76195;BME280;64964;48.694;21.206;2023-02-13T09:45:46;99914.47;;;15.63;32.53
76195;BME280;64964;48.694;21.206;2023-02-13T09:48:28;99904.22;;;15.32;29.99
76195;BME280;64964;48.694;21.206;2023-02-13T09:50:55;99898.97;;;15.40;32.08
76195;BME280;64964;48.694;21.206;2023-02-13T09:53:22;99896.59;;;15.37;31.81
76195;BME280;64964;48.694;21.206;2023-02-13T09:58:47;99889.50;;;15.46;31.89
76195;BME280;64964;48.694;21.206;2023-02-13T10:01:29;99879.63;;;15.38;31.35
76195;BME280;64964;48.694;21.206;2023-02-13T10:06:57;99873.88;;;15.95;31.17
76195;BME280;64964;48.694;21.206;2023-02-13T10:12:21;99878.31;;;16.97;31.17
76195;BME280;64964;48.694;21.206;2023-02-13T10:16:00;99876.34;;;17.56;30.02
76195;BME280;64964;48.694;21.206;2023-02-13T10:18:00;99870.53;;;18.25;28.44
76195;BME280;64964;48.694;21.206;2023-02-13T10:20:42;99873.69;;;18.76;29.79
76195;BME280;64964;48.694;21.206;2023-02-13T10:23:26;99868.56;;;18.89;27.97
76195;BME280;64964;48.694;21.206;2023-02-13T10:26:22;99866.38;;;19.38;27.53
76195;BME280;64964;48.694;21.206;2023-02-13T10:29:03;99858.03;;;19.56;28.06
76195;BME280;64964;48.694;21.206;2023-02-13T10:31:51;99860.72;;;19.56;28.17
76195;BME280;64964;48.694;21.206;2023-02-13T10:34:21;99865.66;;;19.45;28.02
76195;BME280;64964;48.694;21.206;2023-02-13T10:36:49;99870.75;;;19.16;26.93
76195;BME280;64964;48.694;21.206;2023-02-13T10:41:51;99857.50;;;18.13;26.13
76195;BME280;64964;48.694;21.206;2023-02-13T10:52:19;99847.88;;;16.31;28.58
76195;BME280;64964;48.694;21.206;2023-02-13T10:58:12;99840.84;;;15.44;30.00
76195;BME280;64964;48.694;21.206;2023-02-13T11:00:47;99832.06;;;15.69;29.80
76195;BME280;64964;48.694;21.206;2023-02-13T11:03:23;99833.69;;;15.97;30.63
76195;BME280;64964;48.694;21.206;2023-02-13T11:05:49;99825.28;;;16.52;30.35
76195;BME280;64964;48.694;21.206;2023-02-13T11:08:19;99828.22;;;17.24;30.28
76195;BME280;64964;48.694;21.206;2023-02-13T11:10:45;99827.31;;;17.72;29.49
76195;BME280;64964;48.694;21.206;2023-02-13T11:13:19;99829.84;;;17.90;27.49
76195;BME280;64964;48.694;21.206;2023-02-13T11:16:17;99816.84;;;17.30;28.08
76195;BME280;64964;48.694;21.206;2023-02-13T11:18:48;99801.31;;;16.92;27.89
76195;BME280;64964;48.694;21.206;2023-02-13T11:21:22;99815.22;;;16.46;28.81
76195;BME280;64964;48.694;21.206;2023-02-13T11:23:58;99814.38;;;15.51;29.07
76195;BME280;64964;48.694;21.206;2023-02-13T11:26:33;99806.44;;;14.16;30.67
76195;BME280;64964;48.694;21.206;2023-02-13T11:29:00;99819.59;;;13.14;32.35
76195;BME280;64964;48.694;21.206;2023-02-13T11:31:30;99812.38;;;12.27;34.18
76195;BME280;64964;48.694;21.206;2023-02-13T11:33:57;99806.44;;;11.73;35.03
76195;BME280;64964;48.694;21.206;2023-02-13T11:39:20;99812.59;;;11.11;36.99
76195;BME280;64964;48.694;21.206;2023-02-13T11:41:47;99812.97;;;10.86;37.61
76195;BME280;64964;48.694;21.206;2023-02-13T11:44:25;99804.88;;;10.66;38.44
76195;BME280;64964;48.694;21.206;2023-02-13T11:46:59;99800.44;;;10.56;38.45
76195;BME280;64964;48.694;21.206;2023-02-13T11:49:25;99794.84;;;10.15;39.15
76195;BME280;64964;48.694;21.206;2023-02-13T11:51:56;99783.50;;;9.70;40.01
76195;BME280;64964;48.694;21.206;2023-02-13T11:59:25;99773.59;;;8.81;41.58
76195;BME280;64964;48.694;21.206;2023-02-13T12:04:42;99780.66;;;8.45;42.40
76195;BME280;64964;48.694;21.206;2023-02-13T12:09:38;99769.84;;;8.72;43.24
76195;BME280;64964;48.694;21.206;2023-02-13T12:12:04;99774.59;;;8.91;42.37
76195;BME280;64964;48.694;21.206;2023-02-13T12:14:33;99763.88;;;9.16;41.81
76195;BME280;64964;48.694;21.206;2023-02-13T12:17:12;99770.97;;;9.38;42.10
76195;BME280;64964;48.694;21.206;2023-02-13T12:19:47;99762.34;;;9.47;41.66
76195;BME280;64964;48.694;21.206;2023-02-13T12:25:29;99774.72;;;9.47;41.26
76195;BME280;64964;48.694;21.206;2023-02-13T12:28:20;99776.03;;;9.41;41.83
76195;BME280;64964;48.694;21.206;2023-02-13T12:31:10;99768.81;;;9.21;41.99
76195;BME280;64964;48.694;21.206;2023-02-13T12:39:40;99757.75;;;9.16;42.56
76195;BME280;64964;48.694;21.206;2023-02-13T12:56:00;99762.47;;;9.35;41.49
76195;BME280;64964;48.694;21.206;2023-02-13T13:25:44;99750.16;;;7.67;44.74
76195;BME280;64964;48.694;21.206;2023-02-13T13:28:19;99745.44;;;7.60;44.69
76195;BME280;64964;48.694;21.206;2023-02-13T13:30:46;99753.44;;;7.58;44.72
76195;BME280;64964;48.694;21.206;2023-02-13T13:33:24;99746.50;;;7.57;44.50
76195;BME280;64964;48.694;21.206;2023-02-13T13:35:57;99745.03;;;7.66;44.48
76195;BME280;64964;48.694;21.206;2023-02-13T13:38:50;99750.34;;;7.77;44.43
76195;BME280;64964;48.694;21.206;2023-02-13T13:47:18;99741.22;;;7.70;44.86
76195;BME280;64964;48.694;21.206;2023-02-13T13:49:52;99742.41;;;7.53;45.10
76195;BME280;64964;48.694;21.206;2023-02-13T13:54:46;99751.47;;;7.36;45.25
76195;BME280;64964;48.694;21.206;2023-02-13T13:57:17;99754.31;;;7.20;45.61
76195;BME280;64964;48.694;21.206;2023-02-13T14:05:00;99737.75;;;6.93;46.12
76195;BME280;64964;48.694;21.206;2023-02-13T14:07:35;99734.41;;;6.91;46.80
76195;BME280;64964;48.694;21.206;2023-02-13T14:10:01;99732.38;;;6.69;47.51
76195;BME280;64964;48.694;21.206;2023-02-13T14:14:52;99741.63;;;6.62;47.32
76195;BME280;64964;48.694;21.206;2023-02-13T14:34:07;99714.34;;;6.50;48.51
76195;BME280;64964;48.694;21.206;2023-02-13T14:36:47;99719.63;;;6.50;47.94
76195;BME280;64964;48.694;21.206;2023-02-13T14:44:22;99707.50;;;6.47;48.10
76195;BME280;64964;48.694;21.206;2023-02-13T14:46:50;99708.56;;;6.45;48.05
76195;BME280;64964;48.694;21.206;2023-02-13T14:49:22;99706.13;;;6.42;48.17
76195;BME280;64964;48.694;21.206;2023-02-13T14:52:14;99704.78;;;6.36;48.22
76195;BME280;64964;48.694;21.206;2023-02-13T14:54:49;99702.00;;;6.25;49.15
76195;BME280;64964;48.694;21.206;2023-02-13T14:57:19;99696.75;;;6.25;48.60
76195;BME280;64964;48.694;21.206;2023-02-13T14:59:52;99694.31;;;6.22;48.64
76195;BME280;64964;48.694;21.206;2023-02-13T15:02:24;99691.69;;;6.22;48.94
76195;BME280;64964;48.694;21.206;2023-02-13T15:05:10;99691.78;;;6.20;48.88
76195;BME280;64964;48.694;21.206;2023-02-13T15:07:41;99686.72;;;6.17;49.12
76195;BME280;64964;48.694;21.206;2023-02-13T15:13:00;99678.31;;;6.12;49.20
76195;BME280;64964;48.694;21.206;2023-02-13T15:15:32;99673.47;;;6.06;49.27
76195;BME280;64964;48.694;21.206;2023-02-13T15:18:00;99686.16;;;5.99;49.59
76195;BME280;64964;48.694;21.206;2023-02-13T15:20:29;99682.03;;;5.95;49.82
76195;BME280;64964;48.694;21.206;2023-02-13T15:22:57;99667.31;;;5.93;49.61
76195;BME280;64964;48.694;21.206;2023-02-13T15:25:39;99670.69;;;5.81;50.84
76195;BME280;64964;48.694;21.206;2023-02-13T15:28:06;99670.59;;;5.82;50.12
76195;BME280;64964;48.694;21.206;2023-02-13T15:30:35;99669.66;;;5.83;49.91
76195;BME280;64964;48.694;21.206;2023-02-13T15:33:11;99668.06;;;5.81;50.38
76195;BME280;64964;48.694;21.206;2023-02-13T15:35:39;99674.00;;;5.70;50.55
76195;BME280;64964;48.694;21.206;2023-02-13T15:38:35;99665.59;;;5.65;51.06
76195;BME280;64964;48.694;21.206;2023-02-13T15:41:05;99666.44;;;5.65;50.47
76195;BME280;64964;48.694;21.206;2023-02-13T15:46:27;99661.25;;;5.64;50.35
76195;BME280;64964;48.694;21.206;2023-02-13T15:48:54;99657.56;;;5.54;50.43
76195;BME280;64964;48.694;21.206;2023-02-13T15:51:24;99649.97;;;5.49;50.85
76195;BME280;64964;48.694;21.206;2023-02-13T15:53:52;99651.94;;;5.45;50.71
76195;BME280;64964;48.694;21.206;2023-02-13T15:56:18;99660.47;;;5.49;50.62